Time;durP1;ratioP1;P1;durP2;ratioP2;P2;SDS_P1;SDS_P2;PMS_P1;PMS_P2;Temp;Humidity;BMP_temperature;BMP_pressure;BME280_temperature;BME280_humidity;BME280_pressure;Samples;Min_cycle;Max_cycle;Signal;HPM_P1;HPM_P2
2022/11/22 00:00:35;;;;;;;36.60;24.15;;;3.80;99.90;;;;;;5033495;28;20044;-78
2022/11/22 00:03:00;;;;;;;38.92;24.77;;;3.80;99.90;;;;;;5033760;28;20037;-77
2022/11/22 00:05:26;;;;;;;54.25;26.65;;;3.80;99.90;;;;;;5030962;28;20045;-77
2022/11/22 00:07:51;;;;;;;36.30;24.77;;;3.80;99.90;;;;;;5031586;28;20041;-78
2022/11/22 00:10:17;;;;;;;36.28;22.85;;;3.80;99.90;;;;;;5012778;28;20522;-77
2022/11/22 00:12:43;;;;;;;36.53;24.38;;;3.80;99.90;;;;;;5033268;28;20040;-77
2022/11/22 00:15:10;;;;;;;39.60;25.15;;;3.80;99.90;;;;;;5033219;28;20105;-77
2022/11/22 00:17:36;;;;;;;40.47;23.90;;;3.80;99.90;;;;;;5031598;28;20084;-77
2022/11/22 00:20:03;;;;;;;34.50;21.10;;;3.90;99.90;;;;;;5031596;28;20033;-77
2022/11/22 00:22:30;;;;;;;36.58;23.52;;;3.90;99.90;;;;;;5033341;28;20403;-77
2022/11/22 00:24:56;;;;;;;33.40;21.80;;;3.80;99.90;;;;;;5011751;28;20163;-77
2022/11/22 00:27:21;;;;;;;38.88;22.52;;;3.80;99.90;;;;;;5033051;28;20315;-77
2022/11/22 00:29:47;;;;;;;33.40;21.02;;;3.90;99.90;;;;;;5032209;28;20049;-77
2022/11/22 00:32:13;;;;;;;28.55;20.38;;;3.90;99.90;;;;;;5024727;28;20046;-77
2022/11/22 00:34:38;;;;;;;34.95;22.00;;;3.90;99.90;;;;;;5016110;28;20049;-77
2022/11/22 00:37:04;;;;;;;40.90;22.92;;;3.90;99.90;;;;;;5032874;28;20033;-77
2022/11/22 00:39:29;;;;;;;35.85;22.55;;;3.90;99.90;;;;;;5014886;28;20124;-77
2022/11/22 00:41:55;;;;;;;40.40;22.45;;;3.90;99.90;;;;;;5016519;28;20046;-77
2022/11/22 00:44:20;;;;;;;39.50;23.10;;;3.90;99.90;;;;;;5031980;28;20037;-77
2022/11/22 00:46:46;;;;;;;44.10;23.38;;;3.90;99.90;;;;;;5014851;28;20041;-77
2022/11/22 00:49:11;;;;;;;31.17;21.17;;;3.90;99.90;;;;;;5032965;28;20045;-77
2022/11/22 00:51:37;;;;;;;38.25;22.33;;;3.90;99.90;;;;;;5015654;28;20033;-77
2022/11/22 00:54:03;;;;;;;46.13;23.65;;;3.90;99.90;;;;;;5015192;28;20466;-77
2022/11/22 00:56:28;;;;;;;38.90;22.42;;;3.90;99.90;;;;;;5015914;28;20156;-78
2022/11/22 00:58:54;;;;;;;33.08;20.98;;;3.90;99.90;;;;;;5031327;28;20514;-77
2022/11/22 01:01:19;;;;;;;33.55;21.05;;;3.90;99.90;;;;;;5031322;28;20095;-77
2022/11/22 01:03:45;;;;;;;37.58;22.70;;;3.90;99.90;;;;;;5032341;28;20087;-77
2022/11/22 01:06:10;;;;;;;32.08;21.83;;;3.90;99.90;;;;;;5015649;28;20054;-77
2022/11/22 01:08:36;;;;;;;32.10;20.80;;;3.90;99.90;;;;;;5014872;28;20125;-77
2022/11/22 01:11:01;;;;;;;34.70;21.83;;;3.90;99.90;;;;;;5029052;28;20431;-77
2022/11/22 01:13:28;;;;;;;32.20;21.73;;;3.90;99.90;;;;;;5031156;28;20426;-78
2022/11/22 01:15:59;;;;;;;33.60;21.80;;;4.00;99.90;;;;;;5031998;28;20037;-77
2022/11/22 01:18:25;;;;;;;30.48;20.98;;;4.00;99.90;;;;;;5032046;28;20087;-77
2022/11/22 01:20:50;;;;;;;37.67;22.33;;;3.90;99.90;;;;;;5012483;28;20034;-77
2022/11/22 01:23:16;;;;;;;40.55;23.38;;;4.00;99.90;;;;;;5027000;28;20033;-77
2022/11/22 01:25:43;;;;;;;47.00;24.00;;;4.00;99.90;;;;;;5011790;28;20044;-77
2022/11/22 01:28:09;;;;;;;37.47;22.17;;;4.00;99.90;;;;;;5027460;28;20045;-77
2022/11/22 01:30:34;;;;;;;70.20;26.55;;;4.00;99.90;;;;;;5031901;28;20542;-77
2022/11/22 01:33:00;;;;;;;39.60;23.02;;;4.00;99.90;;;;;;5031933;28;20046;-77
2022/11/22 01:35:25;;;;;;;32.92;21.90;;;4.00;99.90;;;;;;5029675;28;20049;-78
2022/11/22 01:37:51;;;;;;;34.22;21.88;;;4.00;99.90;;;;;;5013637;28;20041;-78
2022/11/22 01:40:16;;;;;;;39.47;23.33;;;4.00;99.90;;;;;;5030494;28;20040;-78
2022/11/22 01:42:50;;;;;;;41.53;22.50;;;4.00;99.90;;;;;;5031803;28;20037;-77
2022/11/22 01:45:31;;;;;;;39.40;22.95;;;4.00;99.90;;;;;;5031650;28;20045;-77
2022/11/22 01:48:01;;;;;;;39.50;22.60;;;4.00;99.90;;;;;;5015142;28;20041;-77
2022/11/22 01:50:28;;;;;;;41.60;23.05;;;4.00;99.90;;;;;;5028976;28;20080;-78
2022/11/22 01:52:58;;;;;;;38.35;22.38;;;4.00;99.90;;;;;;5015282;28;20383;-77
2022/11/22 01:55:25;;;;;;;48.72;23.70;;;4.00;99.90;;;;;;5031476;28;20376;-77
2022/11/22 01:57:51;;;;;;;39.70;22.58;;;4.00;99.90;;;;;;5014989;28;20041;-77
2022/11/22 02:00:17;;;;;;;35.40;22.52;;;4.00;99.90;;;;;;5010589;28;20722;-77
2022/11/22 02:02:50;;;;;;;42.83;22.55;;;4.00;99.90;;;;;;5014029;28;20037;-77
2022/11/22 02:05:20;;;;;;;38.08;23.27;;;4.00;99.90;;;;;;5013434;28;20396;-77
2022/11/22 02:07:55;;;;;;;48.40;22.77;;;4.10;99.90;;;;;;5030918;28;20037;-77
2022/11/22 02:10:23;;;;;;;33.15;21.52;;;4.10;99.90;;;;;;5029444;28;20466;-77
2022/11/22 02:12:51;;;;;;;40.90;22.98;;;4.10;99.90;;;;;;5030770;28;20114;-77
2022/11/22 02:15:17;;;;;;;43.65;23.13;;;4.10;99.90;;;;;;5025844;28;20510;-77
2022/11/22 02:17:42;;;;;;;50.90;24.17;;;4.10;99.90;;;;;;5029772;28;20029;-77
2022/11/22 02:20:08;;;;;;;41.38;23.05;;;4.20;99.90;;;;;;5029378;28;20132;-77
2022/11/22 02:22:45;;;;;;;33.30;22.00;;;4.20;99.90;;;;;;5031047;28;20037;-77
2022/11/22 02:25:21;;;;;;;41.08;23.23;;;4.20;99.90;;;;;;5030492;28;20042;-77
2022/11/22 02:27:48;;;;;;;35.65;21.67;;;4.20;99.90;;;;;;5021657;28;20053;-76
2022/11/22 02:30:14;;;;;;;45.72;24.13;;;4.20;99.90;;;;;;5030800;28;20041;-76
2022/11/22 02:32:40;;;;;;;42.15;22.05;;;4.20;99.90;;;;;;5028781;28;20507;-76
2022/11/22 02:35:32;;;;;;;37.75;22.83;;;4.20;99.90;;;;;;5030456;28;20083;-76
2022/11/22 02:38:01;;;;;;;42.00;23.10;;;4.20;99.90;;;;;;5007682;28;20080;-76
2022/11/22 02:40:31;;;;;;;42.28;22.55;;;4.20;99.90;;;;;;5016699;28;20311;-76
2022/11/22 02:43:17;;;;;;;34.80;21.13;;;4.20;99.90;;;;;;5013841;28;20037;-76
2022/11/22 02:45:43;;;;;;;40.90;21.95;;;4.20;99.90;;;;;;5029461;28;20029;-76
2022/11/22 02:48:11;;;;;;;44.05;24.10;;;4.20;99.90;;;;;;5013999;28;20118;-76
2022/11/22 02:50:38;;;;;;;41.50;24.00;;;4.30;99.90;;;;;;5029740;28;20037;-76
2022/11/22 02:53:04;;;;;;;35.38;22.30;;;4.30;99.90;;;;;;5013958;28;20116;-76
2022/11/22 02:55:30;;;;;;;45.55;23.85;;;4.30;99.90;;;;;;5029172;28;20057;-76
2022/11/22 02:57:55;;;;;;;35.10;22.13;;;4.30;99.90;;;;;;5029239;28;20029;-76
2022/11/22 03:00:21;;;;;;;44.33;23.83;;;4.30;99.90;;;;;;5029386;28;20491;-76
2022/11/22 03:02:47;;;;;;;46.42;23.02;;;4.30;99.90;;;;;;5013074;28;20037;-76
2022/11/22 03:05:15;;;;;;;50.40;24.47;;;4.30;99.90;;;;;;5053841;22;20041;-76
2022/11/22 03:07:41;;;;;;;41.88;22.95;;;4.30;99.90;;;;;;5009201;28;20054;-78
2022/11/22 03:10:06;;;;;;;41.85;23.35;;;4.30;99.90;;;;;;5010432;28;20502;-79
2022/11/22 03:12:32;;;;;;;39.65;23.00;;;4.30;99.90;;;;;;5045496;28;20067;-79
2022/11/22 03:14:58;;;;;;;41.47;23.30;;;4.30;99.90;;;;;;5022736;28;20533;-78
2022/11/22 03:17:23;;;;;;;36.83;22.85;;;4.40;99.90;;;;;;5030724;28;20033;-81
2022/11/22 03:19:49;;;;;;;45.25;24.17;;;4.40;99.90;;;;;;5020859;28;20060;-80
2022/11/22 03:22:14;;;;;;;33.60;21.20;;;4.40;99.90;;;;;;5014187;28;20057;-81
2022/11/22 03:24:40;;;;;;;39.67;24.20;;;4.40;99.90;;;;;;5010831;28;20045;-82
2022/11/22 03:27:06;;;;;;;48.05;24.33;;;4.40;99.90;;;;;;5006316;28;20037;-81
2022/11/22 03:29:31;;;;;;;37.15;23.85;;;4.40;99.90;;;;;;5039469;28;20041;-81
2022/11/22 03:31:57;;;;;;;39.22;23.50;;;4.50;99.90;;;;;;5040169;28;20136;-81
2022/11/22 03:34:22;;;;;;;36.83;23.50;;;4.50;99.90;;;;;;5013420;28;20116;-81
2022/11/22 03:36:48;;;;;;;42.53;24.08;;;4.50;99.90;;;;;;5013886;28;20072;-81
2022/11/22 03:39:14;;;;;;;32.75;23.38;;;4.50;99.90;;;;;;5012852;28;20149;-81
2022/11/22 03:41:39;;;;;;;34.40;23.38;;;4.50;99.90;;;;;;5022031;28;20029;-81
2022/11/22 03:44:05;;;;;;;65.80;28.05;;;4.60;99.90;;;;;;5019888;28;20404;-81
2022/11/22 03:46:31;;;;;;;52.80;25.70;;;4.60;99.90;;;;;;5037605;28;20044;-81
2022/11/22 03:48:56;;;;;;;33.63;22.65;;;4.60;99.90;;;;;;5013624;28;20128;-81
2022/11/22 03:51:22;;;;;;;38.33;24.50;;;4.60;99.90;;;;;;5030375;28;20100;-81
2022/11/22 03:53:48;;;;;;;34.42;23.40;;;4.60;99.90;;;;;;5013191;28;20045;-81
2022/11/22 03:56:13;;;;;;;45.38;24.08;;;4.60;99.90;;;;;;5038296;28;20096;-81
2022/11/22 03:58:39;;;;;;;39.47;24.08;;;4.70;99.90;;;;;;5029108;28;20484;-81
2022/11/22 04:01:04;;;;;;;42.17;25.42;;;4.70;99.90;;;;;;5020896;28;20120;-81
2022/11/22 04:03:30;;;;;;;31.80;23.30;;;4.70;99.90;;;;;;5013793;28;20041;-81
2022/11/22 04:05:56;;;;;;;42.08;24.95;;;4.70;99.90;;;;;;5013865;28;20044;-81
2022/11/22 04:08:21;;;;;;;39.83;24.20;;;4.70;99.90;;;;;;5029941;28;20045;-81
2022/11/22 04:10:48;;;;;;;49.63;25.52;;;4.70;99.90;;;;;;5019893;28;20384;-81
2022/11/22 04:13:14;;;;;;;44.97;25.63;;;4.70;99.90;;;;;;5013465;28;20050;-81
2022/11/22 04:15:40;;;;;;;40.85;25.20;;;4.70;99.90;;;;;;5019563;28;20104;-81
2022/11/22 04:18:09;;;;;;;40.70;26.48;;;4.80;99.90;;;;;;5028357;28;20040;-81
2022/11/22 04:23:21;;;;;;;53.00;26.30;;;4.80;99.90;;;;;;5038542;28;20411;-80
2022/11/22 04:25:49;;;;;;;38.25;25.88;;;4.80;99.90;;;;;;5038660;28;20045;-81
2022/11/22 04:28:17;;;;;;;42.05;24.67;;;4.80;99.90;;;;;;5016280;28;20069;-81
2022/11/22 04:33:28;;;;;;;52.72;26.88;;;4.90;99.90;;;;;;5033778;28;20052;-80
2022/11/22 04:35:54;;;;;;;66.45;28.98;;;4.90;99.90;;;;;;5022159;28;20041;-81
2022/11/22 04:38:20;;;;;;;41.83;25.50;;;4.90;99.90;;;;;;5031971;28;20040;-80
2022/11/22 04:40:46;;;;;;;61.05;26.80;;;5.00;99.90;;;;;;5033366;28;20415;-81
2022/11/22 04:46:05;;;;;;;48.10;26.50;;;5.00;99.90;;;;;;5036747;28;20399;-81
2022/11/22 04:48:31;;;;;;;39.20;24.85;;;5.00;99.90;;;;;;5030158;28;20045;-81
2022/11/22 04:53:40;;;;;;;46.97;25.50;;;5.10;99.90;;;;;;5027826;28;20514;-80
2022/11/22 04:56:06;;;;;;;40.83;24.08;;;5.10;99.90;;;;;;5032730;28;20136;-81
2022/11/22 04:58:31;;;;;;;40.55;23.60;;;5.10;99.90;;;;;;5031892;28;20091;-81
2022/11/22 05:00:57;;;;;;;54.50;25.10;;;5.10;99.90;;;;;;5024552;28;20395;-80
2022/11/22 05:03:22;;;;;;;50.63;24.88;;;5.10;99.90;;;;;;5016675;28;20120;-81
2022/11/22 05:05:48;;;;;;;55.13;24.92;;;5.10;99.90;;;;;;5013264;28;20130;-80
2022/11/22 05:08:14;;;;;;;37.78;22.02;;;5.10;99.90;;;;;;5032151;28;20037;-80
2022/11/22 05:10:55;;;;;;;40.10;21.67;;;5.10;99.90;;;;;;5032684;28;20049;-80
2022/11/22 05:13:33;;;;;;;43.65;22.50;;;5.10;99.90;;;;;;5016118;28;20046;-80
2022/11/22 05:16:01;;;;;;;36.47;21.73;;;5.10;99.90;;;;;;5014260;28;20061;-80
2022/11/22 05:18:27;;;;;;;42.30;22.20;;;5.10;99.90;;;;;;5031522;28;20036;-80
2022/11/22 05:20:52;;;;;;;35.55;21.73;;;5.10;99.90;;;;;;5040659;28;20037;-80
2022/11/22 05:26:04;;;;;;;40.15;20.40;;;5.10;99.90;;;;;;5031986;28;20106;-80
2022/11/22 05:28:31;;;;;;;30.75;18.60;;;5.10;99.90;;;;;;5015884;28;20044;-80
2022/11/22 05:30:57;;;;;;;46.75;20.50;;;5.00;99.90;;;;;;5013419;28;20042;-80
2022/11/22 05:33:23;;;;;;;29.30;18.63;;;5.00;99.90;;;;;;5039007;28;20029;-80
2022/11/22 05:35:49;;;;;;;39.42;20.50;;;4.90;99.90;;;;;;5043754;28;20384;-80
2022/11/22 05:38:14;;;;;;;40.15;19.23;;;4.90;99.90;;;;;;5023947;28;20102;-80
2022/11/22 05:40:40;;;;;;;55.30;21.60;;;4.80;99.90;;;;;;5047331;28;20034;-81
2022/11/22 05:43:05;;;;;;;28.65;18.02;;;4.80;99.90;;;;;;5014530;28;20061;-80
2022/11/22 05:45:32;;;;;;;34.03;18.90;;;4.70;99.90;;;;;;5017114;28;20526;-80
2022/11/22 05:47:58;;;;;;;34.35;18.38;;;4.70;99.90;;;;;;5044219;28;20557;-80
2022/11/22 05:50:24;;;;;;;35.25;18.33;;;4.60;99.90;;;;;;5035314;28;20045;-80
2022/11/22 05:52:49;;;;;;;36.78;17.40;;;4.60;99.90;;;;;;5030165;28;20123;-80
2022/11/22 05:55:15;;;;;;;36.60;18.80;;;4.50;99.90;;;;;;5014066;28;20049;-80
2022/11/22 05:57:40;;;;;;;30.05;17.15;;;4.40;99.90;;;;;;5014983;28;20064;-80
2022/11/22 06:00:07;;;;;;;34.15;17.83;;;4.40;99.90;;;;;;5013985;28;20038;-80
2022/11/22 06:02:32;;;;;;;27.10;16.92;;;4.40;99.90;;;;;;5017293;28;20038;-80
2022/11/22 06:04:58;;;;;;;40.83;18.67;;;4.30;99.90;;;;;;5031353;28;20415;-80
2022/11/22 06:07:23;;;;;;;42.67;18.40;;;4.20;99.90;;;;;;5012693;28;20037;-80
2022/11/22 06:09:49;;;;;;;30.95;16.42;;;4.20;99.90;;;;;;5029235;28;20049;-80
2022/11/22 06:12:15;;;;;;;48.92;17.85;;;4.20;99.90;;;;;;5017887;28;20069;-79
2022/11/22 06:14:40;;;;;;;47.00;18.30;;;4.10;99.90;;;;;;5022084;28;20672;-80
2022/11/22 06:17:06;;;;;;;36.08;17.13;;;4.10;99.90;;;;;;5026827;28;20033;-79
2022/11/22 06:19:31;;;;;;;35.95;16.90;;;4.00;99.90;;;;;;5014608;28;20041;-80
2022/11/22 06:21:57;;;;;;;41.10;18.95;;;4.00;99.90;;;;;;5031232;28;20087;-80
2022/11/22 06:24:22;;;;;;;41.17;17.52;;;3.90;99.90;;;;;;5029821;28;20402;-80
2022/11/22 06:26:48;;;;;;;41.88;18.15;;;3.90;99.90;;;;;;5014571;28;20477;-79
2022/11/22 06:29:14;;;;;;;34.00;16.67;;;3.90;99.90;;;;;;5038656;28;20064;-80
2022/11/22 06:31:39;;;;;;;42.50;18.35;;;3.90;99.90;;;;;;5014697;28;20088;-81
2022/11/22 06:34:05;;;;;;;37.42;16.48;;;3.80;99.90;;;;;;5019324;28;20381;-80
2022/11/22 06:36:33;;;;;;;36.15;17.42;;;3.80;99.90;;;;;;5021608;28;20033;-80
2022/11/22 06:39:02;;;;;;;42.97;18.02;;;3.80;99.90;;;;;;5031061;28;20095;-80
2022/11/22 06:41:32;;;;;;;51.55;18.23;;;3.80;99.90;;;;;;5037981;28;20080;-80
2022/11/22 06:43:58;;;;;;;59.55;19.00;;;3.80;99.90;;;;;;5019588;28;20124;-81
2022/11/22 06:46:25;;;;;;;36.95;17.52;;;3.70;99.90;;;;;;5022008;28;20123;-81
2022/11/22 06:48:51;;;;;;;41.72;17.00;;;3.70;99.90;;;;;;5011654;28;20045;-79
2022/11/22 06:51:19;;;;;;;44.03;17.27;;;3.70;99.90;;;;;;5013753;28;20041;-81
2022/11/22 06:53:45;;;;;;;36.85;16.23;;;3.60;99.90;;;;;;5014133;28;20049;-81
2022/11/22 06:56:15;;;;;;;37.28;16.92;;;3.60;99.90;;;;;;5014656;28;20048;-80
2022/11/22 06:58:41;;;;;;;33.70;15.50;;;3.60;99.90;;;;;;5020154;28;20160;-80
2022/11/22 07:01:09;;;;;;;40.63;16.35;;;3.60;99.90;;;;;;5013981;28;20080;-79
2022/11/22 07:03:36;;;;;;;44.40;16.75;;;3.60;99.90;;;;;;5013549;28;20061;-80
2022/11/22 07:06:03;;;;;;;42.58;15.50;;;3.60;99.90;;;;;;5028199;28;20051;-81
2022/11/22 07:08:29;;;;;;;32.20;14.93;;;3.50;99.90;;;;;;5041207;28;20037;-80
2022/11/22 07:10:54;;;;;;;43.40;15.77;;;3.50;99.90;;;;;;5030056;28;20033;-78
2022/11/22 07:13:20;;;;;;;38.33;14.10;;;3.50;99.90;;;;;;5024578;28;20551;-78
2022/11/22 07:15:56;;;;;;;33.75;12.95;;;3.50;99.90;;;;;;5030485;28;20042;-79
2022/11/22 07:18:22;;;;;;;33.28;12.73;;;3.50;99.90;;;;;;5013597;28;20033;-77
2022/11/22 07:20:48;;;;;;;42.90;13.90;;;3.50;99.90;;;;;;5014310;28;20049;-79
2022/11/22 07:23:14;;;;;;;33.28;12.05;;;3.50;99.90;;;;;;5014041;28;20387;-78
2022/11/22 07:25:44;;;;;;;30.05;11.52;;;3.60;99.90;;;;;;5031043;28;20107;-78
2022/11/22 07:28:10;;;;;;;33.38;11.30;;;3.50;99.90;;;;;;5040608;28;20041;-78
2022/11/22 07:30:35;;;;;;;32.55;10.73;;;3.50;99.90;;;;;;5034069;28;20045;-80
2022/11/22 07:33:01;;;;;;;39.80;11.25;;;3.50;99.90;;;;;;4999356;28;20534;-77
2022/11/22 07:35:27;;;;;;;29.27;10.98;;;3.50;99.90;;;;;;5007762;28;20499;-79
2022/11/22 07:37:53;;;;;;;27.45;9.45;;;3.50;99.90;;;;;;5027112;28;20041;-80
2022/11/22 07:40:18;;;;;;;34.05;10.30;;;3.50;99.90;;;;;;5032310;28;20087;-80
2022/11/22 07:42:44;;;;;;;26.25;9.73;;;3.50;99.90;;;;;;5027808;28;20029;-80
2022/11/22 07:45:09;;;;;;;27.70;9.90;;;3.50;99.90;;;;;;5020078;28;20164;-79
2022/11/22 07:47:35;;;;;;;28.25;10.07;;;3.50;99.90;;;;;;5017110;28;20123;-79
2022/11/22 07:50:01;;;;;;;33.45;9.52;;;3.50;99.90;;;;;;5045572;28;20067;-79
2022/11/22 07:52:26;;;;;;;27.95;9.27;;;3.50;99.90;;;;;;5054547;28;20041;-79
2022/11/22 07:54:52;;;;;;;28.23;8.70;;;3.50;99.90;;;;;;5047821;28;20385;-79
2022/11/22 07:57:17;;;;;;;33.50;9.50;;;3.50;99.90;;;;;;5017460;28;20561;-79
2022/11/22 07:59:43;;;;;;;31.35;9.55;;;3.60;99.90;;;;;;5018897;28;20041;-79
2022/11/22 08:02:12;;;;;;;22.90;8.15;;;3.60;99.90;;;;;;5035335;28;20060;-79
2022/11/22 08:04:37;;;;;;;22.20;8.05;;;3.70;99.90;;;;;;5036485;28;20041;-79
2022/11/22 08:07:03;;;;;;;26.58;8.10;;;3.70;99.90;;;;;;5020346;28;20048;-80
2022/11/22 08:09:28;;;;;;;22.98;7.65;;;3.80;99.90;;;;;;5039476;28;20060;-79
2022/11/22 08:11:54;;;;;;;18.17;7.35;;;3.80;99.90;;;;;;5037264;28;20026;-78
2022/11/22 08:14:20;;;;;;;34.78;8.18;;;3.80;99.90;;;;;;5019656;28;20095;-80
2022/11/22 08:16:45;;;;;;;24.48;8.27;;;3.80;99.90;;;;;;5055074;28;20492;-80
2022/11/22 08:19:16;;;;;;;23.48;7.60;;;3.80;99.90;;;;;;5039887;28;20045;-80
2022/11/22 08:21:46;;;;;;;24.52;7.40;;;3.80;99.90;;;;;;5031323;28;20033;-79
2022/11/22 08:24:12;;;;;;;26.00;7.65;;;3.80;99.90;;;;;;5057825;28;20045;-80
2022/11/22 08:26:48;;;;;;;16.45;6.68;;;3.80;99.90;;;;;;5049779;28;20030;-76
2022/11/22 08:29:22;;;;;;;26.15;7.97;;;3.80;99.90;;;;;;5052254;28;20041;-79
2022/11/22 08:31:48;;;;;;;27.80;7.88;;;3.90;99.90;;;;;;5050296;28;20044;-79
2022/11/22 08:34:13;;;;;;;18.00;6.43;;;3.90;99.90;;;;;;5074504;28;20039;-79
2022/11/22 08:36:39;;;;;;;23.33;7.93;;;3.90;99.90;;;;;;5045239;28;20041;-80
2022/11/22 08:39:04;;;;;;;26.10;7.45;;;4.10;99.90;;;;;;5046696;28;20040;-80
2022/11/22 08:41:30;;;;;;;27.65;8.15;;;4.20;99.90;;;;;;5060058;28;20041;-78
2022/11/22 08:43:55;;;;;;;28.05;8.27;;;4.30;99.90;;;;;;5022054;28;20045;-80
2022/11/22 08:46:21;;;;;;;25.08;8.30;;;4.40;99.90;;;;;;5015955;28;20514;-80
2022/11/22 08:48:47;;;;;;;23.58;8.40;;;4.50;99.90;;;;;;5020450;28;20385;-79
2022/11/22 08:51:13;;;;;;;21.08;7.30;;;4.50;99.90;;;;;;5019324;28;20041;-78
2022/11/22 08:53:42;;;;;;;22.83;7.72;;;4.60;99.90;;;;;;5027990;28;20041;-80
2022/11/22 08:56:12;;;;;;;14.55;6.63;;;4.60;99.90;;;;;;5054285;28;20041;-80
2022/11/22 08:58:38;;;;;;;20.73;6.78;;;4.70;99.90;;;;;;5022934;28;20029;-80
2022/11/22 09:01:10;;;;;;;15.70;7.03;;;4.70;99.90;;;;;;5036823;28;20100;-80
2022/11/22 09:03:36;;;;;;;19.75;6.63;;;4.70;99.90;;;;;;5032965;28;20044;-80
2022/11/22 09:06:14;;;;;;;18.95;7.13;;;4.80;99.90;;;;;;5077721;22;20044;-78
2022/11/22 09:08:42;;;;;;;21.85;7.47;;;4.80;99.90;;;;;;5043539;28;20036;-77
2022/11/22 09:11:11;;;;;;;13.45;6.00;;;4.80;99.90;;;;;;5042315;28;20051;-77
2022/11/22 09:13:37;;;;;;;18.80;6.78;;;4.90;99.90;;;;;;5037147;28;20032;-78
2022/11/22 09:16:09;;;;;;;23.85;6.68;;;5.00;99.90;;;;;;5043264;28;20120;-78
2022/11/22 09:18:35;;;;;;;19.33;6.95;;;5.00;99.90;;;;;;5039906;28;20044;-78
2022/11/22 09:21:04;;;;;;;19.08;6.22;;;5.10;99.90;;;;;;5019779;28;20033;-78
2022/11/22 09:23:30;;;;;;;19.15;7.22;;;5.20;99.90;;;;;;5041918;28;20029;-78
2022/11/22 09:26:04;;;;;;;18.48;5.72;;;5.30;99.90;;;;;;5019916;28;20509;-78
2022/11/22 09:28:34;;;;;;;17.02;5.55;;;5.30;99.90;;;;;;5015161;28;20073;-78
2022/11/22 09:31:02;;;;;;;19.85;5.55;;;5.40;99.90;;;;;;5021058;28;20124;-78
2022/11/22 09:33:28;;;;;;;12.77;5.93;;;5.40;99.90;;;;;;5031607;28;20033;-78
2022/11/22 09:36:05;;;;;;;17.77;6.32;;;5.60;99.90;;;;;;5019650;28;20052;-78
2022/11/22 09:38:32;;;;;;;12.45;5.47;;;5.50;99.90;;;;;;5024322;28;20609;-79
2022/11/22 09:41:03;;;;;;;17.35;5.30;;;5.60;99.90;;;;;;5036341;28;20039;-78
2022/11/22 09:44:09;;;;;;;22.08;5.72;;;5.70;99.90;;;;;;5028025;28;20175;-78
2022/11/22 09:47:12;;;;;;;15.18;5.03;;;5.70;99.90;;;;;;5017850;28;20491;-79
2022/11/22 09:49:57;;;;;;;11.60;4.93;;;5.70;99.90;;;;;;5024386;28;20040;-77
2022/11/22 09:52:33;;;;;;;12.73;4.28;;;5.80;99.90;;;;;;5025101;28;20045;-78
2022/11/22 09:55:04;;;;;;;13.57;5.22;;;5.70;99.90;;;;;;5019475;28;20073;-77
2022/11/22 09:57:43;;;;;;;12.45;5.03;;;5.80;99.90;;;;;;5028617;28;20045;-77
2022/11/22 10:00:28;;;;;;;16.95;5.40;;;5.80;99.90;;;;;;5014823;28;20041;-78
2022/11/22 10:03:21;;;;;;;13.80;4.95;;;5.80;99.90;;;;;;5019367;28;20125;-78
2022/11/22 10:05:53;;;;;;;10.75;4.70;;;5.90;99.90;;;;;;5026177;28;20090;-77
2022/11/22 10:08:28;;;;;;;13.85;5.15;;;6.00;99.90;;;;;;5013996;28;20476;-78
2022/11/22 10:10:56;;;;;;;10.57;4.25;;;6.00;99.90;;;;;;5033866;28;20047;-77
2022/11/22 10:13:36;;;;;;;12.18;4.65;;;6.00;99.90;;;;;;5018607;28;20525;-76
2022/11/22 10:16:22;;;;;;;12.40;4.15;;;6.00;99.90;;;;;;5034607;28;20174;-77
2022/11/22 10:19:03;;;;;;;7.90;3.72;;;6.10;99.90;;;;;;5024751;28;20041;-76
2022/11/22 10:21:29;;;;;;;17.13;4.75;;;6.10;99.90;;;;;;5019282;28;20037;-76
2022/11/22 10:23:55;;;;;;;9.27;3.58;;;6.10;99.90;;;;;;5011048;28;20115;-76
2022/11/22 10:26:24;;;;;;;11.93;4.03;;;6.10;99.90;;;;;;5014798;28;20049;-76
2022/11/22 10:29:26;;;;;;;13.63;4.45;;;6.20;99.90;;;;;;5021970;28;20381;-79
2022/11/22 10:31:52;;;;;;;9.07;3.83;;;6.30;99.90;;;;;;5003793;28;20040;-76
2022/11/22 10:34:39;;;;;;;9.48;3.60;;;6.40;99.90;;;;;;5024826;28;20037;-75
2022/11/22 10:37:18;;;;;;;9.52;3.65;;;6.50;99.90;;;;;;5019802;28;20101;-76
2022/11/22 10:39:56;;;;;;;9.18;3.50;;;6.70;99.90;;;;;;5020120;28;20036;-76
2022/11/22 10:42:37;;;;;;;11.65;3.40;;;6.80;99.90;;;;;;5022431;28;20036;-80
2022/11/22 10:45:31;;;;;;;12.93;2.97;;;6.90;99.90;;;;;;5026685;28;20044;-75
2022/11/22 10:48:24;;;;;;;9.20;3.28;;;6.90;99.90;;;;;;5026564;28;20051;-79
2022/11/22 10:51:14;;;;;;;10.20;3.05;;;6.90;99.90;;;;;;5024856;28;20040;-79
2022/11/22 10:53:52;;;;;;;7.65;2.67;;;6.90;99.90;;;;;;4995663;28;20132;-80
2022/11/22 10:56:50;;;;;;;7.65;2.92;;;6.90;99.90;;;;;;5010821;28;20073;-77
2022/11/22 10:59:28;;;;;;;10.25;3.28;;;6.90;99.90;;;;;;5038220;28;20118;-78
2022/11/22 11:02:09;;;;;;;11.90;2.97;;;6.80;99.90;;;;;;5008191;28;20033;-78
2022/11/22 11:04:41;;;;;;;8.45;2.75;;;6.80;99.90;;;;;;5016528;28;20036;-77
2022/11/22 11:07:15;;;;;;;9.20;3.47;;;6.70;99.90;;;;;;5025304;28;20090;-78
2022/11/22 11:09:52;;;;;;;8.18;2.65;;;6.70;99.90;;;;;;5016953;28;20036;-78
2022/11/22 11:12:54;;;;;;;9.68;2.85;;;6.70;99.90;;;;;;5017134;28;20033;-78
2022/11/22 11:15:21;;;;;;;11.27;2.90;;;6.70;99.90;;;;;;5006982;28;20055;-78
2022/11/22 11:17:58;;;;;;;8.10;3.20;;;6.70;99.90;;;;;;5010000;28;20060;-78
2022/11/22 11:20:30;;;;;;;10.57;2.45;;;6.80;99.90;;;;;;5015252;28;20493;-77
2022/11/22 11:22:56;;;;;;;6.60;2.72;;;6.80;99.90;;;;;;5013122;28;20037;-75
2022/11/22 11:25:42;;;;;;;8.93;2.85;;;6.90;99.90;;;;;;5002113;28;20361;-76
2022/11/22 11:29:35;;;;;;;8.27;2.58;;;6.90;99.90;;;;;;5024077;28;20032;-77
2022/11/22 11:32:12;;;;;;;8.15;2.50;;;7.00;99.90;;;;;;5026789;28;20044;-77
2022/11/22 11:34:44;;;;;;;9.18;2.33;;;7.10;99.90;;;;;;5024159;28;20045;-77
2022/11/22 11:37:30;;;;;;;7.97;2.50;;;7.10;99.90;;;;;;5013392;28;20037;-77
2022/11/22 11:39:56;;;;;;;5.82;2.35;;;7.10;99.90;;;;;;5019460;28;20036;-77
2022/11/22 11:42:26;;;;;;;7.50;2.72;;;7.10;99.90;;;;;;5028982;28;20506;-77
2022/11/22 11:45:18;;;;;;;6.78;2.30;;;7.10;99.90;;;;;;5018601;28;20048;-77
2022/11/22 11:47:47;;;;;;;6.97;2.67;;;7.00;99.90;;;;;;5017221;28;20045;-77
2022/11/22 11:50:21;;;;;;;9.60;2.42;;;7.00;99.90;;;;;;5027476;28;20041;-77
2022/11/22 11:53:05;;;;;;;8.60;2.72;;;7.00;99.90;;;;;;5017742;28;20040;-77
2022/11/22 11:55:37;;;;;;;6.95;2.40;;;7.10;99.90;;;;;;5018554;28;20056;-77
2022/11/22 11:58:19;;;;;;;7.10;2.67;;;6.90;99.90;;;;;;5019197;28;20038;-77
2022/11/22 12:00:46;;;;;;;8.32;2.45;;;6.90;99.90;;;;;;5028651;28;20045;-77
2022/11/22 12:03:21;;;;;;;7.40;2.50;;;6.90;99.90;;;;;;5029393;28;20067;-77
2022/11/22 12:06:09;;;;;;;8.90;2.47;;;6.90;99.90;;;;;;5035380;28;20049;-77
2022/11/22 12:08:46;;;;;;;7.57;2.25;;;6.90;99.90;;;;;;5020026;28;20124;-76
2022/11/22 12:11:22;;;;;;;5.88;1.77;;;6.80;99.90;;;;;;5021351;28;20041;-76
2022/11/22 12:14:02;;;;;;;6.40;2.05;;;6.80;99.90;;;;;;5000697;28;20151;-77
2022/11/22 12:16:57;;;;;;;6.93;2.22;;;6.80;99.90;;;;;;5022967;28;20061;-76
2022/11/22 12:19:51;;;;;;;6.85;2.22;;;6.70;99.90;;;;;;5030746;28;20072;-78
2022/11/22 12:22:36;;;;;;;6.90;2.13;;;6.70;99.90;;;;;;5010114;28;20048;-78
2022/11/22 12:25:37;;;;;;;7.30;2.10;;;6.70;99.90;;;;;;5005343;28;20047;-78
2022/11/22 12:28:26;;;;;;;6.68;2.50;;;6.70;99.90;;;;;;5022882;28;20057;-79
2022/11/22 12:31:02;;;;;;;7.38;1.80;;;6.70;99.90;;;;;;5013921;28;20376;-77
2022/11/22 12:37:13;;;;;;;6.43;2.22;;;6.70;99.90;;;;;;5035128;28;20067;-77
2022/11/22 12:39:55;;;;;;;6.88;2.10;;;6.60;99.90;;;;;;5016615;28;20087;-77
2022/11/22 12:42:45;;;;;;;4.47;1.90;;;6.60;99.90;;;;;;5044455;28;20048;-76
2022/11/22 12:45:38;;;;;;;5.00;1.85;;;6.60;99.90;;;;;;5020026;28;20390;-77
2022/11/22 12:48:08;;;;;;;5.15;2.00;;;6.60;99.90;;;;;;5025092;28;20037;-78
2022/11/22 12:50:47;;;;;;;4.85;1.60;;;6.60;99.90;;;;;;5021053;28;20033;-78
2022/11/22 12:53:26;;;;;;;5.35;1.67;;;6.60;99.90;;;;;;5039418;28;20040;-78
2022/11/22 12:56:16;;;;;;;7.15;2.35;;;6.60;99.90;;;;;;5038825;28;20036;-78
2022/11/22 12:58:53;;;;;;;4.97;1.52;;;6.60;99.90;;;;;;5009633;28;20073;-77
2022/11/22 13:01:34;;;;;;;5.78;1.90;;;6.60;99.90;;;;;;5015032;28;20163;-78
2022/11/22 13:04:09;;;;;;;3.47;1.75;;;6.60;99.90;;;;;;5011555;28;20135;-78
2022/11/22 13:06:59;;;;;;;5.50;1.63;;;6.60;99.90;;;;;;5021943;28;20110;-78
2022/11/22 13:09:35;;;;;;;4.15;1.40;;;6.60;99.90;;;;;;5020645;28;20441;-78
2022/11/22 13:12:12;;;;;;;6.15;1.70;;;6.60;99.90;;;;;;5012801;28;20068;-78
2022/11/22 13:14:47;;;;;;;3.78;1.60;;;6.60;99.90;;;;;;5006114;28;20487;-78
2022/11/22 13:17:19;;;;;;;5.25;1.60;;;6.60;99.90;;;;;;5006234;28;20045;-78